Time;durP1;ratioP1;P1;durP2;ratioP2;P2;SDS_P1;SDS_P2;PMS_P1;PMS_P2;Temp;Humidity;BMP_temperature;BMP_pressure;BME280_temperature;BME280_humidity;BME280_pressure;Samples;Min_cycle;Max_cycle;Signal;HPM_P1;HPM_P2
2023/07/03 00:01:26;;;;;;;19.67;14.33;;;;;;;11.96;100.00;95871.91;7402295;19;20392;-75
2023/07/03 00:03:53;;;;;;;22.40;14.47;;;;;;;12.21;100.00;95881.16;7402715;19;20408;-75
2023/07/03 00:06:20;;;;;;;21.40;15.30;;;;;;;12.02;100.00;95878.44;7402041;19;20380;-75
2023/07/03 00:08:47;;;;;;;17.47;13.80;;;;;;;11.87;100.00;95881.91;7402104;19;21140;-75
2023/07/03 00:11:14;;;;;;;19.90;15.13;;;;;;;12.13;100.00;95887.41;7401339;19;20381;-75
2023/07/03 00:13:41;;;;;;;20.03;14.47;;;;;;;12.18;100.00;95894.34;7400902;19;20918;-75
2023/07/03 00:16:08;;;;;;;22.93;15.13;;;;;;;11.98;100.00;95882.91;7401639;19;20436;-74
2023/07/03 00:18:35;;;;;;;25.90;15.73;;;;;;;11.91;100.00;95883.53;7403187;19;20376;-75
2023/07/03 00:21:02;;;;;;;23.97;15.70;;;;;;;12.06;100.00;95889.91;7402055;19;20689;-75
2023/07/03 00:23:29;;;;;;;16.27;12.93;;;;;;;11.68;100.00;95870.13;7403169;19;20401;-75
2023/07/03 00:25:56;;;;;;;17.00;13.80;;;;;;;11.61;100.00;95874.47;7401176;19;20413;-75
2023/07/03 00:28:23;;;;;;;21.47;15.20;;;;;;;11.88;100.00;95902.75;7402842;19;20412;-75
2023/07/03 00:30:50;;;;;;;17.40;14.60;;;;;;;11.95;100.00;95884.38;7398597;19;20406;-75
2023/07/03 00:33:17;;;;;;;19.77;14.80;;;;;;;11.87;100.00;95890.63;7403473;19;20372;-75
2023/07/03 00:35:44;;;;;;;22.90;15.23;;;;;;;11.91;100.00;95899.44;7400211;19;20377;-75
2023/07/03 00:38:11;;;;;;;20.33;15.10;;;;;;;11.61;100.00;95891.13;7402024;19;20372;-75
2023/07/03 00:40:38;;;;;;;21.87;15.93;;;;;;;11.54;100.00;95877.75;7399766;19;20404;-74
2023/07/03 00:43:05;;;;;;;20.17;15.30;;;;;;;11.84;100.00;95907.22;7403034;19;20379;-74
2023/07/03 00:45:33;;;;;;;21.23;14.57;;;;;;;11.71;100.00;95890.63;7402148;19;20440;-75
2023/07/03 00:48:00;;;;;;;19.00;14.10;;;;;;;11.39;100.00;95881.16;7405526;19;20368;-75
2023/07/03 00:50:28;;;;;;;23.00;15.23;;;;;;;11.48;100.00;95893.09;7402576;19;20377;-75
2023/07/03 00:53:00;;;;;;;21.80;15.37;;;;;;;11.43;100.00;95903.19;7399136;19;20472;-75
2023/07/03 00:55:31;;;;;;;20.67;15.27;;;;;;;11.24;100.00;95883.47;7400563;19;20368;-75
2023/07/03 00:57:59;;;;;;;20.53;14.40;;;;;;;11.15;100.00;95877.56;7398921;19;20412;-75
2023/07/03 01:00:35;;;;;;;18.50;15.20;;;;;;;11.46;100.00;95915.75;7400508;19;20377;-75
2023/07/03 01:03:24;;;;;;;20.63;14.77;;;;;;;11.37;100.00;95873.56;7400257;19;20369;-75
2023/07/03 01:05:53;;;;;;;28.80;13.37;;;;;;;11.53;100.00;95881.50;7400804;19;20421;-75
2023/07/03 01:08:22;;;;;;;24.10;13.93;;;;;;;11.45;100.00;95874.50;7399599;19;20372;-75
2023/07/03 01:10:49;;;;;;;19.90;14.13;;;;;;;10.97;100.00;95892.25;7400633;19;20385;-75
2023/07/03 01:13:17;;;;;;;17.73;14.17;;;;;;;11.07;100.00;95894.38;7400486;19;20375;-75
2023/07/03 01:15:46;;;;;;;17.70;13.83;;;;;;;11.12;100.00;95877.50;7397790;19;20408;-75
2023/07/03 01:18:15;;;;;;;24.80;16.53;;;;;;;11.23;100.00;95900.47;7400475;19;20908;-75
2023/07/03 01:20:52;;;;;;;17.87;13.80;;;;;;;11.03;100.00;95869.69;7398482;19;20344;-75
2023/07/03 01:23:33;;;;;;;20.33;14.37;;;;;;;11.20;100.00;95903.00;7400105;19;20915;-75
2023/07/03 01:26:02;;;;;;;19.10;14.50;;;;;;;10.91;100.00;95861.84;7405734;19;20409;-74
2023/07/03 01:28:32;;;;;;;20.87;14.27;;;;;;;11.32;100.00;95892.34;7430926;19;20369;-74
2023/07/03 01:31:00;;;;;;;18.83;14.70;;;;;;;11.16;100.00;95888.91;7413485;19;20404;-74
2023/07/03 01:33:31;;;;;;;16.13;13.37;;;;;;;11.13;100.00;95895.66;7397536;19;20393;-74
2023/07/03 01:35:59;;;;;;;18.83;14.07;;;;;;;11.28;100.00;95906.59;7398649;19;20429;-75
2023/07/03 01:38:30;;;;;;;24.00;14.27;;;;;;;11.39;100.00;95897.06;7397336;19;20471;-75
2023/07/03 01:40:59;;;;;;;18.27;14.43;;;;;;;11.16;100.00;95894.22;7397956;19;20398;-75
2023/07/03 01:43:27;;;;;;;26.77;14.23;;;;;;;10.97;100.00;95849.16;7398980;19;20364;-75
2023/07/03 01:45:54;;;;;;;23.57;16.30;;;;;;;10.87;100.00;95864.41;7398470;19;20412;-75
2023/07/03 01:48:21;;;;;;;18.27;14.97;;;;;;;11.00;100.00;95865.09;7398038;19;20376;-75
2023/07/03 01:50:48;;;;;;;17.50;13.80;;;;;;;11.27;100.00;95879.38;7397718;19;20353;-75
2023/07/03 01:53:31;;;;;;;21.33;14.33;;;;;;;11.28;100.00;95880.13;7397461;19;20365;-75
2023/07/03 01:56:18;;;;;;;19.07;13.60;;;;;;;11.30;100.00;95905.16;7398948;19;20429;-75
2023/07/03 01:58:51;;;;;;;17.47;13.73;;;;;;;11.12;100.00;95891.50;7398131;19;20368;-75
2023/07/03 02:01:56;;;;;;;18.80;14.20;;;;;;;11.25;100.00;95895.59;7396933;19;20665;-75
2023/07/03 02:04:32;;;;;;;18.23;14.00;;;;;;;11.14;100.00;95886.63;7395606;19;20416;-75
2023/07/03 02:07:01;;;;;;;21.70;15.97;;;;;;;11.03;100.00;95882.16;7398216;19;20429;-75
2023/07/03 02:09:30;;;;;;;17.50;14.40;;;;;;;10.51;100.00;95860.03;7396528;19;20424;-75
2023/07/03 02:11:59;;;;;;;18.80;15.40;;;;;;;10.54;100.00;95887.66;7397772;19;20399;-76
2023/07/03 02:14:27;;;;;;;22.73;15.37;;;;;;;10.62;100.00;95852.41;7396445;19;20376;-76
2023/07/03 02:16:54;;;;;;;23.00;15.83;;;;;;;10.76;100.00;95891.66;7398571;19;20416;-75
2023/07/03 02:19:28;;;;;;;21.10;15.50;;;;;;;10.91;100.00;95891.69;7405420;19;20372;-74
2023/07/03 02:21:56;;;;;;;19.67;14.23;;;;;;;10.68;100.00;95887.28;7399784;19;20384;-76
2023/07/03 02:24:24;;;;;;;16.67;13.80;;;;;;;10.98;100.00;95903.59;7407718;19;20393;-75
2023/07/03 02:26:51;;;;;;;20.73;14.83;;;;;;;10.95;100.00;95902.34;7407637;19;20428;-75
2023/07/03 02:29:19;;;;;;;17.20;14.30;;;;;;;10.85;100.00;95877.19;7400169;19;20397;-75
2023/07/03 02:31:46;;;;;;;19.73;14.77;;;;;;;10.86;100.00;95885.91;7398550;19;20719;-76
2023/07/03 02:34:14;;;;;;;23.63;16.43;;;;;;;11.11;100.00;95919.06;7396937;19;20449;-75
2023/07/03 02:36:42;;;;;;;17.77;15.37;;;;;;;11.02;100.00;95899.16;7394645;19;20436;-76
2023/07/03 02:39:09;;;;;;;19.60;14.93;;;;;;;11.07;100.00;95922.69;7397462;19;20356;-76
2023/07/03 02:41:36;;;;;;;17.67;14.40;;;;;;;10.89;100.00;95885.22;7395876;19;20372;-75
2023/07/03 02:44:03;;;;;;;19.50;14.07;;;;;;;10.94;100.00;95906.88;7396858;19;20369;-76
2023/07/03 02:46:32;;;;;;;15.77;13.13;;;;;;;10.90;100.00;95879.59;7394789;19;20436;-76
2023/07/03 02:48:59;;;;;;;20.40;15.00;;;;;;;11.08;100.00;95911.78;7396837;19;20384;-75
2023/07/03 02:51:27;;;;;;;17.70;14.23;;;;;;;10.74;100.00;95873.50;7393443;19;20786;-76
2023/07/03 02:53:57;;;;;;;18.40;13.53;;;;;;;10.62;100.00;95876.19;7394106;19;20443;-76
2023/07/03 02:56:25;;;;;;;18.60;15.93;;;;;;;10.79;100.00;95898.91;7394315;19;20509;-75
2023/07/03 02:58:52;;;;;;;17.67;15.20;;;;;;;10.97;100.00;95908.09;7396219;19;20470;-75
2023/07/03 03:01:24;;;;;;;19.33;16.00;;;;;;;10.85;100.00;95916.09;7395206;19;20900;-74
2023/07/03 03:03:51;;;;;;;21.07;14.20;;;;;;;10.69;100.00;95908.13;7397657;19;20407;-74
2023/07/03 03:06:19;;;;;;;21.00;16.17;;;;;;;10.65;100.00;95873.63;7395283;19;20424;-74
2023/07/03 03:08:46;;;;;;;22.17;15.77;;;;;;;10.80;100.00;95893.28;7397620;19;20368;-75
2023/07/03 03:11:13;;;;;;;19.90;14.00;;;;;;;10.83;100.00;95895.28;7394712;19;20408;-75
2023/07/03 03:13:43;;;;;;;20.53;15.10;;;;;;;10.76;100.00;95897.72;7397116;19;20943;-74
2023/07/03 03:16:10;;;;;;;18.00;14.73;;;;;;;10.55;100.00;95892.66;7394920;19;20800;-74
2023/07/03 03:18:37;;;;;;;17.57;13.30;;;;;;;10.63;100.00;95897.00;7396595;19;20884;-74
2023/07/03 03:21:04;;;;;;;16.43;13.03;;;;;;;10.76;100.00;95892.44;7394974;19;20375;-75
2023/07/03 03:23:31;;;;;;;19.37;14.37;;;;;;;10.80;100.00;95889.88;7396532;19;20944;-75
2023/07/03 03:25:58;;;;;;;20.43;14.40;;;;;;;10.99;100.00;95902.47;7400448;19;20409;-74
2023/07/03 03:28:25;;;;;;;22.67;16.57;;;;;;;10.87;100.00;95867.03;7417795;19;20376;-74
2023/07/03 03:30:52;;;;;;;20.07;14.83;;;;;;;11.02;100.00;95913.13;7414510;19;20404;-75
2023/07/03 03:33:19;;;;;;;17.53;12.80;;;;;;;10.54;100.00;95908.81;7396193;19;20395;-75
2023/07/03 03:35:47;;;;;;;20.20;13.50;;;;;;;10.26;100.00;95880.50;7394706;19;20356;-75
2023/07/03 03:38:15;;;;;;;20.90;15.07;;;;;;;10.48;100.00;95889.03;7397119;19;20879;-75
2023/07/03 03:41:03;;;;;;;21.60;14.30;;;;;;;10.73;100.00;95893.13;7395348;19;20387;-75
2023/07/03 03:43:34;;;;;;;17.53;15.03;;;;;;;10.91;100.00;95894.34;7394107;19;20365;-75
2023/07/03 03:46:02;;;;;;;19.53;14.63;;;;;;;11.09;100.00;95912.56;7395170;19;20444;-76
2023/07/03 03:48:30;;;;;;;19.20;14.13;;;;;;;10.95;100.00;95915.59;7394641;19;20365;-75
2023/07/03 03:51:00;;;;;;;22.27;13.47;;;;;;;10.75;100.00;95896.19;7394445;19;20927;-76
2023/07/03 03:53:29;;;;;;;20.97;14.80;;;;;;;10.85;100.00;95900.22;7394013;19;20389;-76
2023/07/03 03:55:57;;;;;;;19.67;14.70;;;;;;;10.80;100.00;95885.34;7395312;19;20428;-76
2023/07/03 03:58:24;;;;;;;20.50;15.27;;;;;;;10.80;100.00;95898.56;7394917;19;20368;-76
2023/07/03 04:00:52;;;;;;;18.10;14.83;;;;;;;10.87;100.00;95903.31;7396353;19;20372;-76
2023/07/03 04:03:19;;;;;;;21.60;14.00;;;;;;;11.05;100.00;95909.03;7394556;19;20712;-75
2023/07/03 04:05:47;;;;;;;19.53;15.60;;;;;;;10.98;100.00;95893.00;7404183;19;20380;-76
2023/07/03 04:08:15;;;;;;;22.70;15.20;;;;;;;11.14;100.00;95896.44;7427184;19;20381;-76
2023/07/03 04:10:42;;;;;;;19.80;14.87;;;;;;;11.28;100.00;95901.31;7406256;19;20364;-75
2023/07/03 04:13:10;;;;;;;24.07;15.27;;;;;;;11.13;100.00;95881.66;7413855;19;20373;-74
2023/07/03 04:15:51;;;;;;;18.83;12.90;;;;;;;11.48;100.00;95916.16;7409921;19;20389;-74
2023/07/03 04:18:20;;;;;;;19.97;13.50;;;;;;;11.27;100.00;95892.59;7402024;19;20408;-74
2023/07/03 04:20:48;;;;;;;18.53;14.83;;;;;;;11.30;100.00;95897.22;7401549;19;20435;-74
2023/07/03 04:23:16;;;;;;;20.70;15.27;;;;;;;11.14;100.00;95886.63;7403213;19;20333;-76
2023/07/03 04:25:44;;;;;;;17.97;14.10;;;;;;;11.48;100.00;95916.16;7401808;19;20365;-76
2023/07/03 04:28:12;;;;;;;18.40;14.43;;;;;;;11.39;100.00;95895.19;7403886;19;20384;-76
2023/07/03 04:30:39;;;;;;;19.70;15.63;;;;;;;11.41;100.00;95885.00;7400383;19;20411;-75
2023/07/03 04:33:06;;;;;;;21.53;15.00;;;;;;;11.58;100.00;95910.38;7403908;19;20377;-76
2023/07/03 04:35:33;;;;;;;25.93;16.17;;;;;;;11.53;100.00;95903.47;7401303;19;20384;-76
2023/07/03 04:38:01;;;;;;;20.50;15.60;;;;;;;11.61;100.00;95883.19;7402098;19;20384;-76
2023/07/03 04:40:28;;;;;;;18.93;16.37;;;;;;;11.95;100.00;95916.16;7400562;19;20407;-76
2023/07/03 04:42:56;;;;;;;18.70;14.80;;;;;;;11.96;100.00;95919.59;7401535;19;20929;-76
2023/07/03 04:45:25;;;;;;;25.83;14.77;;;;;;;11.89;100.00;95908.84;7400610;19;20401;-76
2023/07/03 04:47:53;;;;;;;25.73;15.80;;;;;;;12.03;100.00;95925.06;7402144;19;20456;-76
2023/07/03 04:50:24;;;;;;;22.27;15.40;;;;;;;12.18;100.00;95926.13;7401319;19;20404;-75
2023/07/03 04:52:52;;;;;;;27.13;16.50;;;;;;;12.26;100.00;95933.88;7398589;19;20369;-76
2023/07/03 04:55:22;;;;;;;21.00;15.67;;;;;;;12.28;100.00;95899.84;7401604;19;20366;-76
2023/07/03 04:57:49;;;;;;;21.93;16.17;;;;;;;12.57;100.00;95933.03;7396075;19;20428;-76
2023/07/03 05:00:18;;;;;;;21.90;16.23;;;;;;;12.49;100.00;95904.81;7400691;19;20373;-76
2023/07/03 05:02:47;;;;;;;22.80;15.37;;;;;;;12.59;100.00;95919.41;7398088;19;20369;-75
2023/07/03 05:05:16;;;;;;;20.30;14.00;;;;;;;12.65;100.00;95907.41;7399591;19;20899;-75
2023/07/03 05:07:44;;;;;;;25.20;16.17;;;;;;;12.82;100.00;95936.19;7397142;19;20737;-75
2023/07/03 05:10:14;;;;;;;21.23;15.43;;;;;;;13.02;100.00;95935.03;7400193;19;20931;-76
2023/07/03 05:12:41;;;;;;;22.13;15.97;;;;;;;12.75;100.00;95914.81;7400262;19;20353;-75
2023/07/03 05:15:11;;;;;;;23.57;15.30;;;;;;;12.98;100.00;95934.22;7401778;19;20376;-76
2023/07/03 05:17:39;;;;;;;21.70;16.13;;;;;;;12.78;100.00;95931.91;7395543;19;20437;-76
2023/07/03 05:20:08;;;;;;;22.53;15.20;;;;;;;12.79;100.00;95938.75;7401880;19;20337;-76
2023/07/03 05:22:38;;;;;;;24.57;15.77;;;;;;;12.86;100.00;95939.66;7399951;19;20365;-76
2023/07/03 05:25:06;;;;;;;26.93;17.40;;;;;;;12.76;100.00;95932.25;7401573;19;20388;-76
2023/07/03 05:27:34;;;;;;;22.43;15.10;;;;;;;12.68;100.00;95910.13;7397309;19;20432;-75
2023/07/03 05:30:01;;;;;;;22.83;17.17;;;;;;;12.82;100.00;95935.38;7398688;19;20408;-75
2023/07/03 05:32:29;;;;;;;20.53;17.27;;;;;;;12.66;100.00;95904.41;7398728;19;20826;-76
2023/07/03 05:34:56;;;;;;;26.10;15.67;;;;;;;13.07;100.00;95938.50;7400351;19;20381;-76
2023/07/03 05:37:23;;;;;;;26.03;17.10;;;;;;;13.14;100.00;95941.31;7396869;19;20948;-75
2023/07/03 05:39:50;;;;;;;23.20;16.47;;;;;;;13.02;100.00;95927.06;7397815;19;20345;-75
2023/07/03 05:42:18;;;;;;;20.10;16.30;;;;;;;12.64;100.00;95903.97;7400356;19;20340;-75
2023/07/03 05:44:46;;;;;;;21.97;15.10;;;;;;;12.77;100.00;95919.75;7399567;19;20365;-75
2023/07/03 05:47:15;;;;;;;23.20;15.80;;;;;;;12.86;100.00;95925.63;7396930;19;20437;-75
2023/07/03 05:49:42;;;;;;;22.33;16.50;;;;;;;13.04;100.00;95940.00;7401266;19;20369;-75
2023/07/03 05:52:10;;;;;;;25.23;16.30;;;;;;;13.02;100.00;95940.34;7397567;19;20377;-75
2023/07/03 05:54:38;;;;;;;27.20;18.07;;;;;;;13.22;100.00;95940.31;7396408;19;20390;-75
2023/07/03 05:57:07;;;;;;;19.43;16.13;;;;;;;13.10;100.00;95927.97;7397776;19;20781;-75
2023/07/03 05:59:36;;;;;;;19.30;14.70;;;;;;;13.22;100.00;95942.97;7395299;19;20375;-75
2023/07/03 06:02:05;;;;;;;19.30;16.00;;;;;;;13.29;100.00;95954.50;7397286;19;20752;-76
2023/07/03 06:04:33;;;;;;;24.27;15.23;;;;;;;13.30;100.00;95931.38;7395901;19;20873;-74
2023/07/03 06:07:00;;;;;;;20.63;15.33;;;;;;;13.48;100.00;95958.22;7396130;19;20440;-75
2023/07/03 06:09:28;;;;;;;28.03;17.80;;;;;;;13.34;100.00;95947.38;7396261;19;20389;-75
2023/07/03 06:11:58;;;;;;;28.30;15.50;;;;;;;13.56;100.00;95960.66;7395815;19;20373;-74
2023/07/03 06:14:25;;;;;;;23.03;16.60;;;;;;;13.49;100.00;95946.53;7396119;19;20373;-75
2023/07/03 06:16:53;;;;;;;17.80;14.87;;;;;;;13.43;100.00;95931.97;7397586;19;20441;-74
2023/07/03 06:19:21;;;;;;;23.07;16.57;;;;;;;13.63;100.00;95949.41;7396191;19;20376;-74
2023/07/03 06:21:48;;;;;;;22.03;16.17;;;;;;;13.83;100.00;95977.44;7397274;19;20354;-74
2023/07/03 06:24:15;;;;;;;22.73;14.83;;;;;;;13.91;100.00;95951.75;7396079;19;20417;-74
2023/07/03 06:26:43;;;;;;;21.53;15.20;;;;;;;14.09;100.00;95955.44;7396314;19;20406;-74
2023/07/03 06:29:12;;;;;;;23.50;15.80;;;;;;;14.33;100.00;95962.25;7395086;19;20760;-74
2023/07/03 06:31:40;;;;;;;23.57;16.70;;;;;;;14.23;100.00;95928.28;7396238;19;20754;-74
2023/07/03 06:34:07;;;;;;;22.37;17.43;;;;;;;14.61;100.00;95958.47;7396123;19;20408;-74
2023/07/03 06:36:34;;;;;;;21.10;16.90;;;;;;;15.03;100.00;95982.16;7397975;19;20441;-74
2023/07/03 06:39:08;;;;;;;24.67;14.17;;;;;;;15.16;100.00;95982.69;7395850;19;20378;-74
2023/07/03 06:41:35;;;;;;;24.40;14.53;;;;;;;15.10;100.00;95963.63;7397118;19;20964;-74
2023/07/03 06:44:04;;;;;;;21.87;14.97;;;;;;;15.30;100.00;95988.94;7395611;19;20377;-74
2023/07/03 06:46:31;;;;;;;21.07;14.57;;;;;;;15.42;100.00;95989.81;7393989;19;20440;-74
2023/07/03 06:48:58;;;;;;;22.43;14.83;;;;;;;15.47;100.00;95981.47;7396477;19;21203;-75
2023/07/03 06:51:25;;;;;;;20.97;14.13;;;;;;;15.34;100.00;95972.97;7393640;19;20414;-74
2023/07/03 06:53:53;;;;;;;17.90;13.33;;;;;;;15.36;100.00;95982.16;7397269;19;20925;-74
2023/07/03 06:56:20;;;;;;;21.73;15.17;;;;;;;15.51;100.00;95996.38;7395408;19;20468;-74
2023/07/03 06:58:49;;;;;;;18.77;13.27;;;;;;;15.55;100.00;95997.19;7397398;19;20386;-74
2023/07/03 07:01:19;;;;;;;20.37;13.50;;;;;;;15.50;100.00;95983.44;7393924;19;20941;-74
2023/07/03 07:03:46;;;;;;;20.93;13.23;;;;;;;15.49;100.00;95973.88;7396197;19;20400;-74
2023/07/03 07:06:23;;;;;;;21.20;15.20;;;;;;;15.63;100.00;96000.72;7393336;19;20407;-74
2023/07/03 07:08:50;;;;;;;16.17;13.47;;;;;;;15.58;100.00;95982.34;7395712;19;20380;-74
2023/07/03 07:11:20;;;;;;;21.53;13.50;;;;;;;15.78;100.00;96005.03;7393441;19;20415;-74
2023/07/03 07:13:49;;;;;;;23.50;12.67;;;;;;;15.71;100.00;95994.31;7395613;19;20741;-74
2023/07/03 07:16:22;;;;;;;21.07;13.20;;;;;;;15.87;100.00;96004.72;7393236;19;20750;-74
2023/07/03 07:18:55;;;;;;;21.47;13.20;;;;;;;15.98;100.00;95991.50;7393369;19;20885;-74
2023/07/03 07:21:23;;;;;;;19.10;13.23;;;;;;;16.10;100.00;95996.53;7396336;19;20342;-74
2023/07/03 07:23:52;;;;;;;17.70;12.47;;;;;;;16.00;100.00;95991.88;7393035;19;20492;-74
2023/07/03 07:26:20;;;;;;;22.83;14.33;;;;;;;16.22;100.00;95996.25;7393989;19;20425;-74
2023/07/03 07:28:47;;;;;;;21.57;12.40;;;;;;;16.16;100.00;95979.03;7394782;19;20353;-75
2023/07/03 07:31:22;;;;;;;23.57;14.17;;;;;;;16.37;100.00;95991.78;7394003;19;20370;-74
2023/07/03 07:33:50;;;;;;;16.23;12.33;;;;;;;16.43;100.00;95999.06;7394067;19;20384;-74
2023/07/03 07:36:20;;;;;;;22.20;14.57;;;;;;;16.50;100.00;96003.69;7393890;19;20831;-74
2023/07/03 07:38:51;;;;;;;18.23;12.53;;;;;;;16.50;100.00;95996.44;7393336;19;20720;-74
2023/07/03 07:41:24;;;;;;;17.80;12.73;;;;;;;16.49;100.00;95986.13;7402983;19;20362;-74
2023/07/03 07:43:53;;;;;;;24.33;13.53;;;;;;;16.53;100.00;96003.69;7403096;19;20406;-74
2023/07/03 07:46:25;;;;;;;22.93;12.63;;;;;;;16.63;100.00;95999.56;7403775;19;20442;-74
2023/07/03 07:48:52;;;;;;;16.33;11.33;;;;;;;16.46;100.00;95995.66;7402094;19;20373;-75
2023/07/03 07:51:19;;;;;;;21.10;12.17;;;;;;;16.79;100.00;96015.31;7399534;19;20477;-74
2023/07/03 07:53:46;;;;;;;20.23;12.10;;;;;;;16.88;100.00;96002.38;7401714;19;20344;-74
2023/07/03 07:56:13;;;;;;;20.60;12.93;;;;;;;16.92;100.00;95978.38;7402575;19;20397;-74
2023/07/03 07:58:40;;;;;;;20.40;13.07;;;;;;;16.93;100.00;95999.34;7429811;19;20408;-74
2023/07/03 08:01:11;;;;;;;16.20;11.80;;;;;;;17.02;100.00;96002.44;7426426;19;20381;-74
2023/07/03 08:03:39;;;;;;;22.77;13.53;;;;;;;16.95;100.00;96015.75;7423836;19;20390;-74
2023/07/03 08:06:08;;;;;;;16.97;11.80;;;;;;;16.99;100.00;95983.75;7398907;19;20391;-74
2023/07/03 08:08:35;;;;;;;25.37;11.30;;;;;;;17.24;100.00;95992.63;7401952;19;20780;-74
2023/07/03 08:11:04;;;;;;;17.60;11.30;;;;;;;17.12;100.00;95990.28;7399632;19;20394;-74
2023/07/03 08:13:33;;;;;;;18.70;13.80;;;;;;;17.39;100.00;96004.88;7402826;19;20347;-74
2023/07/03 08:16:00;;;;;;;18.47;12.30;;;;;;;17.29;100.00;96012.84;7397292;19;20429;-74
2023/07/03 08:18:27;;;;;;;23.47;13.00;;;;;;;17.22;100.00;95957.47;7401530;19;20812;-74
2023/07/03 08:20:54;;;;;;;21.73;12.00;;;;;;;17.70;100.00;95994.66;7399998;19;20334;-74
2023/07/03 08:23:21;;;;;;;19.00;13.00;;;;;;;17.80;100.00;95979.75;7402810;19;20917;-74
2023/07/03 08:25:54;;;;;;;16.00;11.33;;;;;;;17.76;100.00;96000.38;7400441;19;20379;-74
2023/07/03 08:28:22;;;;;;;26.40;14.43;;;;;;;17.85;100.00;95985.50;7401728;19;20809;-74
2023/07/03 08:30:49;;;;;;;29.33;11.63;;;;;;;18.13;100.00;95997.34;7399619;19;20397;-74
2023/07/03 08:33:16;;;;;;;16.50;11.90;;;;;;;18.29;100.00;95995.78;7398665;19;20381;-74
2023/07/03 08:35:43;;;;;;;18.53;12.93;;;;;;;18.33;100.00;95989.69;7399860;19;20712;-74
2023/07/03 08:38:13;;;;;;;21.47;12.20;;;;;;;18.39;100.00;95961.38;7400868;19;20421;-74
2023/07/03 08:40:41;;;;;;;20.17;11.90;;;;;;;18.54;100.00;95997.66;7399253;19;20394;-75
2023/07/03 08:43:17;;;;;;;18.67;10.97;;;;;;;18.59;100.00;95984.66;7398150;19;20383;-74
2023/07/03 08:45:48;;;;;;;16.90;11.60;;;;;;;18.78;100.00;95988.09;7399288;19;20394;-74
2023/07/03 08:48:20;;;;;;;15.07;12.57;;;;;;;18.83;100.00;95958.22;7398509;19;20380;-74
2023/07/03 08:50:51;;;;;;;26.70;13.43;;;;;;;19.06;100.00;95982.63;7398280;19;20444;-75
2023/07/03 08:53:22;;;;;;;20.60;12.57;;;;;;;19.19;99.51;95991.75;7395932;19;20371;-74
2023/07/03 08:55:55;;;;;;;17.33;11.80;;;;;;;19.30;99.58;95991.72;7400339;19;20493;-75
2023/07/03 08:58:23;;;;;;;17.10;10.63;;;;;;;19.01;92.30;95984.94;7398849;19;20370;-74
2023/07/03 09:01:27;;;;;;;16.37;11.10;;;;;;;19.09;95.90;95981.06;7400005;19;20384;-74
2023/07/03 09:04:03;;;;;;;14.53;9.50;;;;;;;19.73;90.40;95978.81;7399391;19;20377;-74
2023/07/03 09:06:39;;;;;;;15.70;9.90;;;;;;;18.95;90.61;95978.44;7397419;19;20422;-74
2023/07/03 09:09:27;;;;;;;18.47;9.90;;;;;;;19.19;89.86;95970.31;7400974;19;20376;-74
2023/07/03 09:12:33;;;;;;;14.83;9.20;;;;;;;19.09;92.00;95973.03;7398323;19;20372;-75
2023/07/03 09:15:05;;;;;;;12.53;9.17;;;;;;;18.52;88.01;95959.81;7399290;19;20448;-74
2023/07/03 09:17:34;;;;;;;18.43;9.97;;;;;;;18.67;88.82;95972.03;7397038;19;20746;-74
2023/07/03 09:20:05;;;;;;;16.70;10.07;;;;;;;18.72;89.54;95987.72;7400657;19;20734;-75
2023/07/03 09:22:37;;;;;;;24.30;10.30;;;;;;;18.58;90.27;95977.78;7400431;19;20382;-74
2023/07/03 09:25:10;;;;;;;14.60;9.33;;;;;;;18.41;89.83;95985.84;7399580;19;20429;-74
2023/07/03 09:27:38;;;;;;;18.53;8.97;;;;;;;18.40;91.31;95963.66;7395593;19;21043;-75
2023/07/03 09:30:07;;;;;;;15.17;9.83;;;;;;;18.62;91.75;95993.84;7398929;19;20414;-75
2023/07/03 09:32:35;;;;;;;15.40;10.57;;;;;;;18.40;91.51;95965.56;7397930;19;20391;-75
2023/07/03 09:35:17;;;;;;;13.77;8.60;;;;;;;18.41;91.07;95969.78;7399535;19;20410;-75
2023/07/03 09:37:48;;;;;;;15.03;8.83;;;;;;;18.89;91.46;95996.84;7395918;19;20807;-75
2023/07/03 09:40:21;;;;;;;14.60;10.37;;;;;;;18.86;90.74;95985.00;7396696;19;20378;-74
2023/07/03 09:42:49;;;;;;;15.17;8.63;;;;;;;18.94;90.23;95982.28;7400149;19;20345;-75
2023/07/03 09:45:18;;;;;;;14.27;9.33;;;;;;;18.98;89.34;95996.44;7396985;19;20379;-75
2023/07/03 09:48:00;;;;;;;15.83;9.53;;;;;;;18.88;89.16;96001.44;7398340;19;20935;-74
2023/07/03 09:50:35;;;;;;;14.40;10.00;;;;;;;18.86;88.97;95985.00;7397258;19;20386;-75
2023/07/03 09:53:03;;;;;;;14.93;10.40;;;;;;;19.00;89.49;96005.63;7394057;19;20406;-74
2023/07/03 09:55:35;;;;;;;19.00;10.70;;;;;;;19.05;88.12;95997.19;7397058;19;20410;-75
2023/07/03 09:58:12;;;;;;;13.23;9.87;;;;;;;19.28;87.56;96009.34;7395657;19;20690;-74
2023/07/03 10:00:48;;;;;;;11.80;9.43;;;;;;;19.22;87.42;96002.84;7397950;19;20713;-74
2023/07/03 10:03:31;;;;;;;12.03;9.30;;;;;;;19.25;88.92;96007.44;7395470;19;20409;-74
2023/07/03 10:06:11;;;;;;;19.73;9.90;;;;;;;19.60;87.16;96001.91;7394515;19;20954;-74
2023/07/03 10:08:46;;;;;;;17.37;8.97;;;;;;;19.35;85.04;95990.53;7397119;19;20359;-74
2023/07/03 10:11:20;;;;;;;10.80;9.60;;;;;;;19.45;86.81;95974.38;7395979;19;20470;-73
2023/07/03 10:13:51;;;;;;;11.03;8.17;;;;;;;19.44;85.37;96010.41;7395957;19;20416;-75
2023/07/03 10:16:22;;;;;;;15.70;9.10;;;;;;;19.77;83.40;96011.03;7394818;19;20972;-74
2023/07/03 10:18:55;;;;;;;25.77;8.37;;;;;;;19.63;82.72;96008.41;7398063;19;20377;-74
2023/07/03 10:21:23;;;;;;;12.87;9.13;;;;;;;20.18;82.45;96007.66;7397615;19;20394;-74
2023/07/03 10:23:51;;;;;;;13.30;9.20;;;;;;;20.48;81.72;95997.03;7394729;19;20437;-75
2023/07/03 10:26:21;;;;;;;13.30;9.10;;;;;;;21.05;80.90;96009.13;7396053;19;20419;-74
2023/07/03 10:28:58;;;;;;;21.10;9.50;;;;;;;20.87;78.06;96009.31;7395476;19;20456;-74
2023/07/03 10:31:38;;;;;;;12.30;8.17;;;;;;;20.28;78.93;96014.84;7398067;19;20751;-74
2023/07/03 10:34:12;;;;;;;13.57;8.53;;;;;;;20.35;80.23;95980.63;7395568;19;20400;-76
2023/07/03 10:36:41;;;;;;;11.53;7.40;;;;;;;20.56;79.04;96016.53;7393373;19;20418;-77
2023/07/03 10:39:25;;;;;;;14.17;9.90;;;;;;;20.02;82.14;96022.31;7397369;19;20355;-77
2023/07/03 10:41:57;;;;;;;17.87;9.57;;;;;;;19.97;81.97;96008.56;7395274;19;20343;-76
2023/07/03 10:44:32;;;;;;;14.77;8.90;;;;;;;20.08;83.40;96020.00;7396720;19;20402;-77
2023/07/03 10:47:09;;;;;;;11.20;6.87;;;;;;;19.78;80.55;96023.28;7394009;19;20940;-77
2023/07/03 10:49:37;;;;;;;16.20;8.57;;;;;;;19.52;81.83;96024.56;7397197;19;20412;-76
2023/07/03 10:52:43;;;;;;;14.03;10.60;;;;;;;19.50;82.63;96021.50;7394714;19;20355;-77
2023/07/03 10:55:15;;;;;;;15.20;9.00;;;;;;;19.35;83.73;96018.09;7392474;19;20938;-76
2023/07/03 10:58:01;;;;;;;17.13;9.07;;;;;;;19.62;84.05;96022.97;7394929;19;20434;-77
2023/07/03 11:00:46;;;;;;;19.83;10.00;;;;;;;19.64;81.33;96029.50;7397135;19;20352;-77
2023/07/03 11:03:22;;;;;;;12.27;7.73;;;;;;;20.19;79.22;96022.59;7395983;19;20494;-77
2023/07/03 11:06:05;;;;;;;13.70;8.10;;;;;;;19.81;77.74;96014.44;7397710;19;20466;-76
2023/07/03 11:08:41;;;;;;;15.37;7.30;;;;;;;19.59;75.40;96015.72;7395238;19;20360;-77
2023/07/03 11:11:16;;;;;;;15.53;7.60;;;;;;;19.66;75.14;96007.63;7394375;19;20381;-77
2023/07/03 11:13:56;;;;;;;13.27;7.80;;;;;;;20.58;75.35;96000.81;7392702;19;20424;-77
2023/07/03 11:16:30;;;;;;;16.90;8.60;;;;;;;21.00;74.55;96025.69;7392916;19;20796;-77
2023/07/03 11:19:09;;;;;;;13.80;7.77;;;;;;;21.03;73.29;96030.25;7393289;19;20351;-77
2023/07/03 11:21:51;;;;;;;8.00;6.90;;;;;;;21.15;71.55;96011.69;7397179;19;20368;-77
2023/07/03 11:25:09;;;;;;;11.27;7.27;;;;;;;20.54;72.62;96026.91;7394345;19;20946;-77
2023/07/03 11:28:06;;;;;;;13.60;7.33;;;;;;;20.18;74.09;96013.78;7390039;19;20801;-77